DW0904 Weather Reports


Display with metric or nautical units.
time (UTC)temp
F
wind
direction
speed
MPH
gust
MPH
rain 1hr
in
rain 24hr
in
rain mn
in
humidity
%
barometer
mb
20200126205002 59 110 0.0 1.0 0.00 0.19 0.00 57 1025.2
20200126204503 60 110 0.0 0.0 0.00 0.19 0.00 56 1025.2
20200126204003 60 110 0.0 0.0 0.00 0.19 0.00 56 1025.2
20200126203503 60 110 0.0 0.0 0.00 0.19 0.00 55 1025.1
20200126203003 61 109 1.0 2.0 0.00 0.19 0.00 54 1025.1
20200126202502 61 110 1.0 2.0 0.00 0.19 0.00 54 1025.1
20200126202003 61 134 2.0 3.0 0.00 0.19 0.00 53 1025.0
20200126201503 61 201 1.0 5.0 0.00 0.19 0.00 53 1025.0
20200126201003 61 147 3.0 4.0 0.00 0.19 0.00 53 1025.0
20200126200502 61 156 1.0 5.0 0.00 0.19 0.00 53 1024.9
20200126200003 61 193 1.0 3.0 0.00 0.19 0.00 53 1024.8
20200126195502 61 198 1.0 4.0 0.00 0.19 0.00 53 1024.8
20200126195003 61 156 2.0 5.0 0.00 0.19 0.00 53 1024.7
20200126194502 61 212 2.0 3.0 0.00 0.19 0.00 53 1024.7
20200126194003 61 195 2.0 6.0 0.00 0.19 0.00 54 1024.7
20200126193502 61 257 2.0 3.0 0.00 0.19 0.00 55 1024.7
20200126193002 62 188 3.0 5.0 0.00 0.19 0.00 55 1024.7
20200126192503 62 359 1.0 2.0 0.00 0.19 0.00 55 1024.6
20200126192003 62 187 2.0 4.0 0.00 0.19 0.00 55 1024.4
20200126191503 62 187 1.0 3.0 0.00 0.19 0.00 54 1024.4
20200126191003 62 198 2.0 3.0 0.00 0.19 0.00 54 1024.3
20200126190503 62 207 1.0 2.0 0.00 0.19 0.00 54 1024.3
20200126190002 62 219 3.0 4.0 0.00 0.19 0.00 53 1024.3
20200126185503 62 203 3.0 4.0 0.00 0.19 0.00 53 1024.3
20200126185003 62 204 2.0 4.0 0.00 0.19 0.00 53 1024.2
20200126184502 62 157 2.0 3.0 0.00 0.19 0.00 52 1024.1
20200126184002 62 189 2.0 5.0 0.00 0.19 0.00 52 1024.0
20200126183502 63 171 1.0 2.0 0.00 0.19 0.00 52 1024.0
20200126183003 63 204 2.0 4.0 0.00 0.19 0.00 52 1023.9
20200126182502 63 359 1.0 3.0 0.00 0.19 0.00 51 1023.8
20200126182003 63 187 3.0 4.0 0.00 0.19 0.00 51 1023.8
20200126181503 63 216 3.0 6.0 0.00 0.19 0.00 51 1023.7
20200126181003 63 195 3.0 6.0 0.00 0.19 0.00 50 1023.6
20200126180503 63 206 2.0 5.0 0.00 0.19 0.00 50 1023.5
20200126180003 64 201 1.0 2.0 0.00 0.19 0.00 48 1023.3
20200126175502 64 189 3.0 4.0 0.00 0.19 0.00 48 1023.3
20200126175002 64 188 3.0 6.0 0.00 0.19 0.00 48 1023.3
20200126174502 64 181 2.0 4.0 0.00 0.19 0.00 49 1023.2
20200126174002 65 181 3.0 7.0 0.00 0.19 0.00 48 1023.1
20200126173502 65 91 4.0 9.0 0.00 0.19 0.00 47 1023.1
20200126173002 65 154 3.0 7.0 0.00 0.19 0.00 46 1023.0
20200126172502 66 265 4.0 5.0 0.00 0.19 0.00 45 1023.0
20200126172004 66 359 2.0 7.0 0.00 0.19 0.00 43 1022.9
20200126171503 67 212 3.0 7.0 0.00 0.19 0.00 42 1022.8
20200126171003 67 225 3.0 5.0 0.00 0.19 0.00 40 1022.9
20200126170503 67 215 2.0 4.0 0.00 0.19 0.00 40 1022.7
20200126170002 68 246 3.0 4.0 0.00 0.19 0.00 39 1022.6
20200126165503 69 220 4.0 6.0 0.00 0.19 0.00 38 1022.5
20200126165002 69 231 4.0 7.0 0.00 0.19 0.00 38 1022.5
20200126164502 70 359 6.0 18.0 0.00 0.19 0.00 37 1022.3
20200126164002 70 178 3.0 4.0 0.00 0.19 0.00 37 1022.3
20200126163503 70 217 3.0 6.0 0.00 0.19 0.00 38 1022.2
20200126163003 70 168 5.0 7.0 0.00 0.19 0.00 38 1022.2
20200126162503 71 183 4.0 5.0 0.00 0.19 0.00 38 1022.1
20200126162003 71 210 5.0 14.0 0.00 0.19 0.00 37 1022.1
20200126161502 71 195 2.0 6.0 0.00 0.19 0.00 37 1022.0
20200126161003 71 195 4.0 6.0 0.00 0.19 0.00 36 1021.9
20200126160503 72 208 5.0 7.0 0.00 0.19 0.00 35 1021.8
20200126160002 72 199 3.0 6.0 0.00 0.19 0.00 36 1021.8
20200126155503 71 220 2.0 3.0 0.00 0.19 0.00 37 1021.8
20200126155003 71 163 2.0 5.0 0.00 0.19 0.00 39 1021.8
20200126154502 71 114 4.0 9.0 0.00 0.19 0.00 40 1021.8
20200126154003 71 174 7.0 14.0 0.00 0.19 0.00 40 1021.8
20200126153502 71 181 5.0 11.0 0.00 0.19 0.00 41 1021.8
20200126153003 70 154 6.0 15.0 0.00 0.19 0.00 41 1021.9
20200126152503 71 359 4.0 6.0 0.00 0.19 0.00 41 1021.9
20200126152003 72 207 6.0 9.0 0.00 0.19 0.00 40 1021.8
20200126151503 72 64 6.0 7.0 0.00 0.19 0.00 39 1021.7
20200126151003 72 168 3.0 8.0 0.00 0.19 0.00 37 1021.8
20200126150502 72 153 3.0 5.0 0.00 0.19 0.00 36 1021.8
20200126150002 72 131 7.0 12.0 0.00 0.19 0.00 35 1021.7
20200126145503 73 255 5.0 11.0 0.00 0.19 0.00 34 1021.7
20200126145003 73 154 5.0 6.0 0.00 0.19 0.00 33 1021.7
20200126144502 74 92 4.0 4.0 0.00 0.19 0.00 33 1021.6
20200126144003 74 359 3.0 9.0 0.00 0.19 0.00 33 1021.6
20200126143502 74 144 5.0 13.0 0.00 0.19 0.00 32 1021.4
20200126143002 74 359 2.0 4.0 0.00 0.19 0.00 32 1021.4
20200126142503 75 237 3.0 6.0 0.00 0.19 0.00 32 1021.5
20200126142003 75 127 5.0 8.0 0.00 0.19 0.00 31 1021.3
20200126141502 75 190 4.0 7.0 0.00 0.19 0.00 30 1021.3
20200126141003 74 147 3.0 9.0 0.00 0.19 0.00 30 1021.3
20200126140503 74 88 5.0 9.0 0.00 0.19 0.00 30 1021.2
20200126140004 74 217 5.0 7.0 0.00 0.19 0.00 30 1021.2
20200126135503 74 151 4.0 7.0 0.00 0.19 0.00 29 1021.2
20200126135002 74 359 5.0 7.0 0.00 0.19 0.00 31 1021.1
20200126134503 74 208 5.0 11.0 0.00 0.19 0.00 31 1021.2
20200126134002 74 202 4.0 9.0 0.00 0.19 0.00 30 1021.0
20200126133503 74 164 5.0 8.0 0.00 0.19 0.00 33 1021.0
20200126133003 74 189 6.0 9.0 0.00 0.19 0.00 33 1020.9
20200126132503 74 188 4.0 5.0 0.00 0.19 0.00 32 1020.9
20200126132003 74 150 4.0 9.0 0.00 0.19 0.00 34 1020.9
20200126131503 73 127 3.0 6.0 0.00 0.19 0.00 36 1021.0
20200126131003 72 185 3.0 5.0 0.00 0.19 0.00 38 1020.9
20200126130502 73 197 4.0 8.0 0.00 0.19 0.00 35 1020.9
20200126130002 73 359 4.0 6.0 0.00 0.19 0.00 34 1020.8
20200126125503 73 192 3.0 5.0 0.00 0.19 0.00 34 1020.7
20200126125003 72 170 3.0 7.0 0.00 0.19 0.00 34 1020.6
20200126124503 73 190 5.0 8.0 0.00 0.19 0.00 33 1020.6
20200126124003 73 210 3.0 7.0 0.00 0.19 0.00 32 1020.7
20200126123503 73 181 7.0 14.0 0.00 0.19 0.00 30 1020.7
20200126123003 73 170 6.0 7.0 0.00 0.19 0.00 32 1020.6
20200126122502 73 200 6.0 15.0 0.00 0.19 0.00 34 1020.6
20200126122003 73 152 4.0 8.0 0.00 0.19 0.00 36 1020.7
20200126121502 72 181 4.0 6.0 0.00 0.19 0.00 37 1020.7
20200126121003 71 359 2.0 5.0 0.00 0.19 0.00 39 1020.5
20200126120502 71 168 3.0 5.0 0.00 0.19 0.00 40 1020.5
20200126120002 71 205 3.0 5.0 0.00 0.19 0.00 39 1020.5
20200126115502 71 132 7.0 14.0 0.00 0.19 0.00 40 1020.6
20200126115002 71 222 7.0 11.0 0.00 0.19 0.00 40 1020.5
20200126114502 72 185 10.0 16.0 0.00 0.19 0.00 38 1020.5
20200126114002 73 296 5.0 11.0 0.00 0.19 0.00 37 1020.3
20200126113502 73 148 5.0 6.0 0.00 0.19 0.00 39 1020.3
20200126113002 72 176 6.0 12.0 0.00 0.19 0.00 39 1020.1
20200126112502 72 152 4.0 7.0 0.00 0.19 0.00 39 1020.1
20200126112003 72 224 5.0 9.0 0.00 0.19 0.00 39 1020.2
20200126111502 72 359 4.0 7.0 0.00 0.19 0.00 39 1020.2
20200126111002 71 206 3.0 5.0 0.00 0.19 0.00 40 1020.1
20200126110502 70 267 5.0 8.0 0.00 0.19 0.00 40 1020.1
20200126110003 71 220 3.0 6.0 0.00 0.19 0.00 41 1020.1
20200126105503 71 249 5.0 8.0 0.00 0.19 0.00 41 1020.1
20200126105002 72 216 7.0 8.0 0.00 0.19 0.00 41 1020.0
20200126104503 71 158 5.0 11.0 0.00 0.19 0.00 42 1020.0
20200126104002 72 98 5.0 8.0 0.00 0.19 0.00 41 1019.9
20200126103502 72 234 3.0 5.0 0.00 0.19 0.00 40 1020.0
20200126103003 72 104 5.0 8.0 0.00 0.19 0.00 40 1019.9
20200126102502 72 184 3.0 6.0 0.00 0.19 0.00 41 1019.9
20200126102003 72 102 5.0 6.0 0.00 0.19 0.00 40 1019.9
20200126101502 71 359 4.0 6.0 0.00 0.19 0.00 40 1019.9
20200126101002 71 173 5.0 9.0 0.00 0.19 0.00 41 1019.9
20200126100503 70 152 5.0 10.0 0.00 0.19 0.00 44 1019.8
20200126100002 69 224 3.0 5.0 0.00 0.19 0.00 45 1019.8
20200126095502 67 153 4.0 8.0 0.00 0.19 0.00 45 1019.9
20200126095002 67 210 3.0 5.0 0.00 0.19 0.00 46 1019.9
20200126094502 67 213 4.0 10.0 0.00 0.19 0.00 49 1019.9
20200126094003 67 262 3.0 5.0 0.00 0.19 0.00 48 1019.8
20200126093502 67 159 3.0 7.0 0.00 0.19 0.00 49 1019.7
20200126093003 68 192 3.0 7.0 0.00 0.19 0.00 50 1019.6
20200126092502 68 231 3.0 9.0 0.00 0.19 0.00 49 1019.5
20200126092002 69 249 7.0 10.0 0.00 0.19 0.00 49 1019.4
20200126091502 69 271 5.0 7.0 0.00 0.19 0.00 48 1019.3
20200126091003 69 359 6.0 11.0 0.00 0.19 0.00 48 1019.2
20200126090502 70 159 4.0 6.0 0.00 0.19 0.00 47 1019.0
20200126090003 69 212 6.0 12.0 0.00 0.19 0.00 48 1019.0
20200126085503 69 207 3.0 4.0 0.00 0.19 0.00 48 1018.9
20200126085003 69 195 4.0 8.0 0.00 0.19 0.00 48 1018.8
20200126084502 68 258 4.0 8.0 0.00 0.19 0.00 48 1018.7
20200126084002 68 181 4.0 5.0 0.00 0.19 0.00 51 1018.7
20200126083502 67 174 3.0 3.0 0.00 0.19 0.00 53 1018.7
20200126083002 67 272 5.0 12.0 0.00 0.19 0.00 53 1018.6
20200126082503 66 359 4.0 6.0 0.00 0.19 0.00 53 1018.5
20200126082002 67 197 4.0 6.0 0.00 0.19 0.00 52 1018.5
20200126081502 67 220 4.0 10.0 0.00 0.19 0.00 51 1018.5
20200126081003 67 160 3.0 6.0 0.00 0.19 0.00 54 1018.4
20200126080502 65 278 3.0 7.0 0.00 0.19 0.00 55 1018.3
20200126080002 65 359 3.0 4.0 0.00 0.19 0.00 54 1018.4
20200126075502 65 235 3.0 5.0 0.00 0.19 0.00 54 1018.3
20200126075002 66 247 3.0 7.0 0.00 0.19 0.00 57 1018.2
20200126074502 66 206 3.0 3.0 0.00 0.19 0.00 57 1018.2
20200126074003 65 249 3.0 5.0 0.00 0.19 0.00 61 1018.1
20200126073503 65 246 2.0 5.0 0.00 0.19 0.00 62 1018.0
20200126073003 64 215 2.0 3.0 0.00 0.19 0.00 65 1017.9
20200126072503 64 196 2.0 2.0 0.00 0.19 0.00 65 1017.9
20200126072003 64 222 2.0 3.0 0.00 0.19 0.00 65 1017.9
20200126071502 64 272 3.0 7.0 0.00 0.19 0.00 65 1018.0
20200126071002 63 359 4.0 5.0 0.00 0.19 0.00 66 1017.9
20200126070502 63 359 3.0 6.0 0.00 0.19 0.00 68 1017.9
20200126070002 62 274 3.0 4.0 0.00 0.19 0.00 70 1017.9
20200126065503 62 359 1.0 3.0 0.00 0.19 0.00 69 1017.8
20200126065002 61 268 2.0 5.0 0.00 0.19 0.00 69 1017.7
20200126064502 61 254 2.0 8.0 0.00 0.19 0.00 69 1017.6
20200126064003 61 233 1.0 2.0 0.00 0.00 0.00 69 1017.5
20200126063503 62 226 1.0 3.0 0.00 0.00 0.00 70 1017.6
20200126063002 62 308 1.0 2.0 0.00 0.00 0.00 69 1017.4
20200126062502 61 315 2.0 3.0 0.00 0.00 0.00 69 1017.3
20200126062003 61 308 2.0 3.0 0.00 0.00 0.00 69 1017.2
20200126061503 61 324 1.0 2.0 0.00 0.00 0.00 69 1017.1
20200126061003 61 326 1.0 2.0 0.00 0.00 0.00 71 1017.0
20200126060503 60 304 1.0 3.0 0.00 0.00 0.00 72 1016.9
20200126060003 60 308 0.0 1.0 0.00 0.00 0.00 74 1016.8
20200126055503 60 303 1.0 2.0 0.00 0.00 0.00 74 1016.7
20200126055003 60 359 2.0 3.0 0.00 0.00 0.00 76 1016.7
20200126054502 60 308 2.0 3.0 0.00 0.00 0.00 79 1016.7
20200126054002 60 359 3.0 4.0 0.00 0.00 0.00 79 1016.6
20200126053502 59 359 2.0 3.0 0.00 0.00 0.00 81 1016.5
20200126053003 59 359 2.0 3.0 0.00 0.00 0.00 82 1016.4
20200126052502 59 320 2.0 4.0 0.00 0.00 0.00 84 1016.3
20200126052002 59 4 1.0 2.0 0.00 0.00 0.00 84 1016.2
20200126051503 59 4 1.0 2.0 0.00 0.00 0.00 84 1016.1
20200126051003 59 4 1.0 2.0 0.00 0.00 0.00 84 1016.0
20200126050502 59 4 1.0 2.0 0.00 0.00 0.00 84 1016.0
20200126050003 58 4 1.0 2.0 0.00 0.00 0.00 84 1015.9
20200126045503 58 4 2.0 3.0 0.00 0.00 0.00 84 1015.8
20200126045003 58 4 1.0 2.0 0.00 0.00 0.00 84 1015.7
20200126044502 58 4 2.0 3.0 0.00 0.00 0.00 83 1015.6
20200126044002 58 22 1.0 2.0 0.00 0.00 0.00 82 1015.5
20200126043502 58 21 2.0 2.0 0.00 0.00 0.00 82 1015.4
20200126043002 57 40 0.0 2.0 0.00 0.00 0.00 81 1015.3
20200126042502 57 41 0.0 0.0 0.00 0.00 0.00 81 1015.2
20200126042002 57 41 0.0 0.0 0.00 0.00 0.00 80 1015.0
20200126041502 57 41 0.0 0.0 0.00 0.00 0.00 80 1014.8
20200126041003 57 41 0.0 0.0 0.00 0.00 0.00 81 1014.7
20200126040502 58 41 0.0 0.0 0.00 0.00 0.00 81 1014.7
20200126040003 58 41 0.0 0.0 0.00 0.00 0.00 81 1014.6
20200126035502 58 41 0.0 0.0 0.00 0.00 0.00 80 1014.6
20200126035003 58 41 0.0 0.0 0.00 0.00 0.00 80 1014.5
20200126034503 58 41 0.0 0.0 0.00 0.00 0.00 80 1014.5
20200126034003 58 41 0.0 0.0 0.00 0.00 0.00 81 1014.4
20200126033503 58 41 0.0 1.0 0.00 0.00 0.00 81 1014.4
20200126033003 58 41 1.0 1.0 0.00 0.00 0.00 81 1014.4
20200126032502 58 41 2.0 2.0 0.00 0.00 0.00 81 1014.3
20200126032002 58 41 1.0 2.0 0.00 0.00 0.00 81 1014.3
20200126031503 58 41 1.0 1.0 0.00 0.00 0.00 81 1014.3
20200126031002 58 41 1.0 1.0 0.00 0.00 0.00 81 1014.2
20200126030502 58 41 0.0 0.0 0.00 0.00 0.00 81 1014.1
20200126030002 58 41 0.0 0.0 0.00 0.00 0.00 81 1014.0
20200126025502 58 41 1.0 2.0 0.00 0.00 0.00 81 1013.9
20200126025002 58 334 0.0 1.0 0.00 0.00 0.00 81 1014.0
20200126024502 58 335 1.0 2.0 0.00 0.00 0.00 81 1013.9
20200126024002 58 208 0.0 0.0 0.00 0.00 0.00 81 1013.8
20200126023502 58 207 0.0 0.0 0.00 0.00 0.00 81 1013.8
20200126023003 58 202 0.0 0.0 0.00 0.00 0.00 81 1013.9
20200126022502 58 241 0.0 0.0 0.00 0.00 0.00 81 1013.9
20200126022002 58 242 0.0 0.0 0.00 0.00 0.00 81 1013.8
20200126021502 58 243 0.0 0.0 0.00 0.00 0.00 81 1013.9
20200126021003 58 243 0.0 0.0 0.00 0.00 0.00 81 1013.9
20200126020503 58 244 1.0 3.0 0.00 0.00 0.00 81 1013.9
20200126020002 58 241 2.0 3.0 0.00 0.00 0.00 80 1014.0
20200126015502 58 359 1.0 2.0 0.00 0.00 0.00 80 1014.1
20200126015003 58 242 1.0 2.0 0.00 0.00 0.00 80 1014.0
20200126014503 58 249 1.0 4.0 0.00 0.00 0.00 80 1014.0
20200126014003 58 202 1.0 2.0 0.00 0.00 0.00 80 1013.9
20200126013502 58 195 1.0 3.0 0.00 0.00 0.00 79 1013.9
20200126013002 58 359 1.0 3.0 0.00 0.00 0.00 78 1013.9
20200126012502 58 256 2.0 4.0 0.00 0.00 0.00 78 1013.8
20200126012002 58 211 1.0 2.0 0.00 0.00 0.00 76 1013.8
20200126011502 59 359 3.0 6.0 0.00 0.00 0.00 76 1013.7
20200126011002 59 251 3.0 6.0 0.00 0.00 0.00 75 1013.6
20200126010502 59 260 3.0 4.0 0.00 0.00 0.00 75 1013.7
20200126010003 59 251 4.0 7.0 0.00 0.00 0.00 74 1013.6
20200126005502 60 254 5.0 8.0 0.00 0.00 0.00 74 1013.4
20200126005002 60 257 7.0 11.0 0.00 0.00 0.00 74 1013.2
20200126004502 60 270 6.0 8.0 0.00 0.00 0.00 73 1013.2
20200126004002 61 269 7.0 12.0 0.00 0.00 0.00 72 1013.0
20200126003502 62 274 7.0 10.0 0.00 0.00 0.00 70 1012.9
20200126003003 63 245 7.0 12.0 0.00 0.00 0.00 69 1012.9
20200126002502 63 253 5.0 7.0 0.00 0.00 0.00 71 1012.9
20200126002002 63 310 4.0 5.0 0.00 0.00 0.00 71 1012.8
20200126001502 63 314 3.0 8.0 0.00 0.00 0.00 70 1012.7
20200126001002 63 314 1.0 3.0 0.00 0.00 0.00 70 1012.8
20200126000502 63 312 3.0 5.0 0.00 0.00 0.00 70 1012.8
20200126000002 63 305 3.0 5.0 0.00 0.00 0.00 70 1012.8
20200125235502 63 359 2.0 4.0 0.00 0.00 0.00 69 1012.9
20200125235002 63 305 2.0 4.0 0.00 0.00 0.00 69 1013.0
20200125234502 63 320 2.0 3.0 0.00 0.00 0.00 69 1012.9
20200125234002 63 322 2.0 4.0 0.00 0.00 0.00 69 1013.0
20200125233502 63 322 4.0 6.0 0.00 0.00 0.00 69 1013.0
20200125233002 63 314 5.0 7.0 0.00 0.00 0.00 69 1013.0
20200125232502 63 284 5.0 9.0 0.00 0.00 0.00 69 1012.9
20200125232002 63 310 6.0 9.0 0.00 0.00 0.00 68 1012.9
20200125231503 63 297 4.0 7.0 0.00 0.00 0.00 68 1012.9
20200125231002 64 359 4.0 5.0 0.00 0.00 0.00 68 1012.9
20200125230503 64 307 5.0 6.0 0.00 0.00 0.00 68 1012.9
20200125230002 64 359 3.0 5.0 0.00 0.00 0.00 68 1013.0
20200125225502 64 334 3.0 4.0 0.00 0.00 0.00 67 1013.0
20200125225003 64 330 4.0 5.0 0.00 0.00 0.00 67 1013.1
20200125224502 64 305 4.0 7.0 0.00 0.00 0.00 67 1013.1
20200125224002 64 310 3.0 8.0 0.00 0.00 0.00 66 1013.3
20200125223502 64 359 1.0 2.0 0.00 0.00 0.00 66 1013.3
20200125223002 64 318 2.0 2.0 0.00 0.00 0.00 67 1013.3
20200125222502 64 315 2.0 2.0 0.00 0.00 0.00 67 1013.3
20200125222002 64 359 2.0 2.0 0.00 0.00 0.00 67 1013.4
20200125221503 64 289 1.0 2.0 0.00 0.00 0.00 67 1013.3
20200125221003 64 289 3.0 4.0 0.00 0.00 0.00 67 1013.3
20200125220502 64 313 3.0 4.0 0.00 0.00 0.00 67 1013.2
20200125220003 64 314 2.0 3.0 0.00 0.00 0.00 66 1013.2
20200125215502 64 320 3.0 3.0 0.00 0.00 0.00 66 1013.2
20200125215003 65 313 2.0 3.0 0.00 0.00 0.00 66 1013.2
20200125214503 65 359 2.0 3.0 0.00 0.00 0.00 66 1013.2
20200125214002 65 325 3.0 3.0 0.00 0.00 0.00 65 1013.2
20200125213502 65 332 1.0 3.0 0.00 0.00 0.00 65 1013.2
20200125213002 65 308 2.0 3.0 0.00 0.00 0.00 64 1013.3
20200125212502 65 359 2.0 3.0 0.00 0.00 0.00 64 1013.2
20200125212002 66 292 4.0 5.0 0.00 0.00 0.00 64 1013.3
20200125211503 66 359 3.0 5.0 0.00 0.00 0.00 64 1013.3
20200125211003 66 310 5.0 8.0 0.00 0.00 0.00 63 1013.4
20200125210503 66 321 4.0 5.0 0.00 0.00 0.00 64 1013.3
20200125210003 66 291 4.0 6.0 0.00 0.00 0.00 64 1013.2
20200125205503 66 359 5.0 9.0 0.00 0.00 0.00 64 1013.2